Time;durP1;ratioP1;P1;durP2;ratioP2;P2;SDS_P1;SDS_P2;PMS_P1;PMS_P2;Temp;Humidity;BMP_temperature;BMP_pressure;BME280_temperature;BME280_humidity;BME280_pressure;Samples;Min_cycle;Max_cycle;Signal;HPM_P1;HPM_P2
2021/05/13 00:01:58;;;;;;;8.90;7.20;;;12.80;99.90;;;;;;4956065;28;20118;-62
2021/05/13 00:04:23;;;;;;;7.65;6.30;;;12.80;99.90;;;;;;4973135;28;20058;-61
2021/05/13 00:06:49;;;;;;;10.00;7.30;;;12.80;99.90;;;;;;4973330;28;20483;-61
2021/05/13 00:09:15;;;;;;;11.30;7.38;;;12.80;99.90;;;;;;4955534;28;20388;-61
2021/05/13 00:11:43;;;;;;;8.32;7.32;;;12.80;99.90;;;;;;4972772;28;20409;-61
2021/05/13 00:14:09;;;;;;;11.10;7.45;;;12.70;99.90;;;;;;4973688;28;20134;-61
2021/05/13 00:16:36;;;;;;;9.13;6.45;;;12.70;99.90;;;;;;4957053;28;20436;-61
2021/05/13 00:19:11;;;;;;;8.35;7.35;;;12.80;99.90;;;;;;4974042;28;20114;-61
2021/05/13 00:21:39;;;;;;;8.45;7.60;;;12.80;99.90;;;;;;4973446;28;20050;-62
2021/05/13 00:24:06;;;;;;;8.68;7.07;;;12.80;99.90;;;;;;4973409;28;20368;-61
2021/05/13 00:26:39;;;;;;;8.70;7.55;;;12.70;99.90;;;;;;4972359;28;20146;-61
2021/05/13 00:29:06;;;;;;;8.77;7.90;;;12.70;99.90;;;;;;4940728;28;20059;-61
2021/05/13 00:31:32;;;;;;;8.30;7.47;;;12.70;99.90;;;;;;4954935;28;20455;-61
2021/05/13 00:34:00;;;;;;;8.60;7.70;;;12.60;99.90;;;;;;4972700;28;20102;-61
2021/05/13 00:36:33;;;;;;;8.32;7.47;;;12.60;99.90;;;;;;4972341;28;20465;-62
2021/05/13 00:38:59;;;;;;;10.55;7.85;;;12.60;99.90;;;;;;4972754;28;20078;-61
2021/05/13 00:41:26;;;;;;;8.32;7.50;;;12.70;99.90;;;;;;4972597;28;20051;-62
2021/05/13 00:43:51;;;;;;;10.98;7.97;;;12.70;99.90;;;;;;4955347;28;20354;-61
2021/05/13 00:46:18;;;;;;;8.80;7.32;;;12.70;99.90;;;;;;4972339;28;20033;-62
2021/05/13 00:48:46;;;;;;;12.70;8.57;;;12.70;99.90;;;;;;4972410;28;20031;-62
2021/05/13 00:51:13;;;;;;;9.63;8.00;;;12.70;99.90;;;;;;4972454;28;20333;-62
2021/05/13 00:53:44;;;;;;;9.60;8.45;;;12.60;99.90;;;;;;4972434;28;20039;-62
2021/05/13 00:56:10;;;;;;;10.25;8.23;;;12.60;99.90;;;;;;4955004;28;20134;-60
2021/05/13 00:58:40;;;;;;;10.40;8.38;;;12.60;99.90;;;;;;4954328;28;20039;-61
2021/05/13 01:01:08;;;;;;;10.93;8.32;;;12.50;99.90;;;;;;4955380;28;20026;-61
2021/05/13 01:03:35;;;;;;;11.43;8.80;;;12.50;99.90;;;;;;4954547;28;20161;-61
2021/05/13 01:06:05;;;;;;;12.20;9.43;;;12.50;99.90;;;;;;4954843;28;20038;-61
2021/05/13 01:08:31;;;;;;;10.10;7.70;;;12.50;99.90;;;;;;4972260;28;20039;-62
2021/05/13 01:10:57;;;;;;;10.02;9.00;;;12.50;99.90;;;;;;4955073;28;20413;-62
2021/05/13 01:13:24;;;;;;;9.82;8.90;;;12.50;99.90;;;;;;4971681;28;20038;-62
2021/05/13 01:16:06;;;;;;;12.60;9.93;;;12.40;99.90;;;;;;4955015;28;20491;-62
2021/05/13 01:18:32;;;;;;;11.32;9.05;;;12.30;99.90;;;;;;4954456;28;20038;-61
2021/05/13 01:20:58;;;;;;;12.90;9.45;;;12.20;99.90;;;;;;4972335;28;20396;-62
2021/05/13 01:23:25;;;;;;;10.95;9.85;;;12.20;99.90;;;;;;4954149;28;20057;-60
2021/05/13 01:25:53;;;;;;;11.68;10.40;;;12.20;99.90;;;;;;4972231;28;20027;-61
2021/05/13 01:28:21;;;;;;;12.00;9.30;;;12.20;99.90;;;;;;4971648;28;20118;-62
2021/05/13 01:30:48;;;;;;;10.57;9.23;;;12.20;99.90;;;;;;4972254;28;20031;-62
2021/05/13 01:33:14;;;;;;;12.45;9.80;;;12.10;99.90;;;;;;4972302;28;20022;-62
2021/05/13 01:35:40;;;;;;;10.10;8.52;;;12.10;99.90;;;;;;4971815;28;20035;-62
2021/05/13 01:38:24;;;;;;;11.57;8.77;;;12.10;99.90;;;;;;4954491;28;20062;-62
2021/05/13 01:40:56;;;;;;;11.70;9.13;;;12.10;99.90;;;;;;4971877;28;20178;-62
2021/05/13 01:43:24;;;;;;;9.23;8.32;;;12.00;99.90;;;;;;4971235;28;20449;-63
2021/05/13 01:45:49;;;;;;;11.35;8.38;;;12.00;99.90;;;;;;4954324;28;20039;-61
2021/05/13 01:48:16;;;;;;;8.63;7.82;;;12.00;99.90;;;;;;4972006;28;20483;-61
2021/05/13 01:50:41;;;;;;;11.20;8.77;;;12.00;99.90;;;;;;4971921;28;20326;-61
2021/05/13 01:53:07;;;;;;;8.50;7.40;;;12.00;99.90;;;;;;4971927;28;20076;-62
2021/05/13 01:55:35;;;;;;;10.73;7.50;;;12.00;99.90;;;;;;4953710;28;20027;-62
2021/05/13 01:58:01;;;;;;;9.13;7.40;;;12.00;99.90;;;;;;4971359;28;20034;-61
2021/05/13 02:00:27;;;;;;;12.63;9.43;;;11.90;99.90;;;;;;4952762;28;20444;-62
2021/05/13 02:02:53;;;;;;;11.55;8.73;;;11.90;99.90;;;;;;4971832;28;20030;-62
2021/05/13 02:05:20;;;;;;;10.52;9.48;;;11.90;99.90;;;;;;4953514;28;20046;-63
2021/05/13 02:07:47;;;;;;;11.25;8.63;;;11.90;99.90;;;;;;4971953;28;20469;-61
2021/05/13 02:10:14;;;;;;;10.18;8.55;;;11.90;99.90;;;;;;4954002;28;20031;-62
2021/05/13 02:12:41;;;;;;;13.05;9.52;;;11.90;99.90;;;;;;4953505;28;20023;-62
2021/05/13 02:15:14;;;;;;;14.35;9.60;;;12.00;99.90;;;;;;4971526;28;20050;-63
2021/05/13 02:17:43;;;;;;;13.25;9.45;;;11.90;99.90;;;;;;4970637;28;20527;-62
2021/05/13 02:20:12;;;;;;;10.70;9.63;;;11.80;99.90;;;;;;4971415;28;20046;-62
2021/05/13 02:22:38;;;;;;;12.60;9.18;;;11.80;99.90;;;;;;4970879;28;20598;-62
2021/05/13 02:25:09;;;;;;;11.45;9.50;;;11.70;99.90;;;;;;4971024;28;20057;-62
2021/05/13 02:27:35;;;;;;;15.07;9.97;;;11.80;99.90;;;;;;4970754;28;20046;-62
2021/05/13 02:30:02;;;;;;;11.52;9.90;;;11.70;99.90;;;;;;4953349;28;20270;-61
2021/05/13 02:32:28;;;;;;;12.82;9.48;;;11.60;99.90;;;;;;4953155;28;20027;-61
2021/05/13 02:34:54;;;;;;;15.80;9.77;;;11.60;99.90;;;;;;4953671;28;20035;-61
2021/05/13 02:37:19;;;;;;;9.55;8.60;;;11.50;99.90;;;;;;4970879;28;20089;-77
2021/05/13 02:39:49;;;;;;;12.52;10.02;;;11.60;99.90;;;;;;4971364;28;20093;-62
2021/05/13 02:42:15;;;;;;;10.75;9.52;;;11.60;99.90;;;;;;4970838;28;20077;-62
2021/05/13 02:44:41;;;;;;;11.20;10.00;;;11.50;99.90;;;;;;4953023;28;20066;-61
2021/05/13 02:47:07;;;;;;;16.15;10.10;;;11.60;99.90;;;;;;4953636;28;20368;-62
2021/05/13 02:49:32;;;;;;;10.55;9.43;;;11.50;99.90;;;;;;4970202;28;20030;-61
2021/05/13 02:51:58;;;;;;;10.38;9.00;;;11.40;99.90;;;;;;4971080;28;20050;-62
2021/05/13 02:54:24;;;;;;;9.73;8.60;;;11.60;99.90;;;;;;4953052;28;20126;-62
2021/05/13 02:56:50;;;;;;;13.48;9.23;;;11.60;99.90;;;;;;4953513;28;20042;-61
2021/05/13 02:59:17;;;;;;;10.38;9.25;;;11.70;99.90;;;;;;4953751;28;20042;-61
2021/05/13 03:01:43;;;;;;;11.90;8.48;;;11.70;99.90;;;;;;4970552;28;20376;-61
2021/05/13 03:04:08;;;;;;;10.80;9.45;;;11.70;99.90;;;;;;4971110;28;20444;-61
2021/05/13 03:06:36;;;;;;;12.10;8.80;;;11.80;99.90;;;;;;4970545;28;20094;-62
2021/05/13 03:09:02;;;;;;;11.20;8.23;;;11.70;99.90;;;;;;4953696;28;20065;-65
2021/05/13 03:11:28;;;;;;;12.13;9.00;;;11.70;99.90;;;;;;4971786;28;20416;-61
2021/05/13 03:13:59;;;;;;;10.25;8.65;;;11.60;99.90;;;;;;4956980;28;20031;-61
2021/05/13 03:16:25;;;;;;;11.50;9.48;;;11.60;99.90;;;;;;4956549;28;20106;-61
2021/05/13 03:18:52;;;;;;;11.75;9.15;;;11.60;99.90;;;;;;4974379;28;20529;-61
2021/05/13 03:21:38;;;;;;;9.65;8.65;;;11.60;99.90;;;;;;4957117;28;20027;-61
2021/05/13 03:26:55;;;;;;;13.65;8.65;;;11.40;99.90;;;;;;4973909;28;20031;-61
2021/05/13 03:29:20;;;;;;;9.77;8.77;;;11.50;99.90;;;;;;4957137;28;20368;-61
2021/05/13 03:31:46;;;;;;;11.05;8.80;;;11.50;99.90;;;;;;4973820;28;20030;-62
2021/05/13 03:34:12;;;;;;;11.60;10.02;;;11.50;99.90;;;;;;4974446;28;20062;-61
2021/05/13 03:36:37;;;;;;;11.75;8.82;;;11.50;99.90;;;;;;4973758;28;20113;-61
2021/05/13 03:39:06;;;;;;;9.18;7.97;;;11.40;99.90;;;;;;4974050;28;20031;-62
2021/05/13 03:41:33;;;;;;;10.02;7.70;;;11.40;99.90;;;;;;4956272;28;20056;-61
2021/05/13 03:43:58;;;;;;;13.93;8.60;;;11.50;99.90;;;;;;4956773;28;20157;-62
2021/05/13 03:46:24;;;;;;;9.25;8.35;;;11.50;99.90;;;;;;4956367;28;20465;-65
2021/05/13 03:48:49;;;;;;;10.23;8.30;;;11.40;99.90;;;;;;4974097;28;20375;-61
2021/05/13 03:51:16;;;;;;;11.25;8.68;;;11.30;99.90;;;;;;4973941;28;20177;-61
2021/05/13 03:53:42;;;;;;;12.13;8.30;;;11.30;99.90;;;;;;4955887;28;20352;-61
2021/05/13 03:56:08;;;;;;;10.65;8.85;;;11.30;99.90;;;;;;4956199;28;20027;-63
2021/05/13 03:58:41;;;;;;;9.23;8.23;;;11.30;99.90;;;;;;4973372;28;20034;-62
2021/05/13 04:01:11;;;;;;;8.82;8.00;;;11.30;99.90;;;;;;4973666;28;20050;-63
2021/05/13 04:03:37;;;;;;;9.15;8.20;;;11.30;99.90;;;;;;4955635;28;20038;-63
2021/05/13 04:06:04;;;;;;;9.27;8.05;;;11.30;99.90;;;;;;4956178;28;20054;-60
2021/05/13 04:08:30;;;;;;;10.10;8.23;;;11.40;99.90;;;;;;4973296;28;20026;-61
2021/05/13 04:10:56;;;;;;;11.15;8.63;;;11.40;99.90;;;;;;4973458;28;20035;-61
2021/05/13 04:13:21;;;;;;;9.73;8.73;;;11.40;99.90;;;;;;4956083;28;20429;-61
2021/05/13 04:15:48;;;;;;;9.75;8.82;;;11.40;99.90;;;;;;4955448;28;20380;-61
2021/05/13 04:18:14;;;;;;;13.82;9.20;;;11.30;99.90;;;;;;4973348;28;20461;-61
2021/05/13 04:20:43;;;;;;;10.85;9.57;;;11.40;99.90;;;;;;4955270;28;20023;-61
2021/05/13 04:23:09;;;;;;;11.55;9.55;;;11.40;99.90;;;;;;4972413;28;20030;-62
2021/05/13 04:25:35;;;;;;;10.80;9.32;;;11.40;99.90;;;;;;4972994;28;20030;-61
2021/05/13 04:28:01;;;;;;;11.65;8.93;;;11.40;99.90;;;;;;4973526;28;20099;-61
2021/05/13 04:30:27;;;;;;;12.75;9.30;;;11.40;99.90;;;;;;4972732;28;20060;-63
2021/05/13 04:32:53;;;;;;;11.25;9.95;;;11.40;99.90;;;;;;4955878;28;20079;-61
2021/05/13 04:35:18;;;;;;;11.20;9.70;;;11.40;99.90;;;;;;4955843;28;20441;-62
2021/05/13 04:37:44;;;;;;;17.40;10.77;;;11.50;99.90;;;;;;4955113;28;20121;-61
2021/05/13 04:40:10;;;;;;;20.00;11.52;;;11.40;99.90;;;;;;4973233;28;20082;-61
2021/05/13 04:42:36;;;;;;;12.27;10.98;;;11.50;99.90;;;;;;4972603;28;20037;-62
2021/05/13 04:45:02;;;;;;;11.60;9.60;;;11.50;99.90;;;;;;4955295;28;20109;-62
2021/05/13 04:50:10;;;;;;;16.85;10.50;;;11.60;99.90;;;;;;4973045;28;20069;-62
2021/05/13 04:52:37;;;;;;;11.35;9.55;;;11.60;99.90;;;;;;4954724;28;20075;-62
2021/05/13 04:55:05;;;;;;;12.90;10.77;;;11.70;99.90;;;;;;4972588;28;20035;-62
2021/05/13 04:57:30;;;;;;;15.45;11.77;;;11.70;99.90;;;;;;4954807;28;20046;-62
2021/05/13 04:59:56;;;;;;;11.85;10.10;;;11.80;99.90;;;;;;4955415;28;20026;-61
2021/05/13 05:02:22;;;;;;;14.82;10.52;;;11.80;99.90;;;;;;4955018;28;20085;-61
2021/05/13 05:04:48;;;;;;;14.20;10.88;;;11.80;99.90;;;;;;4971713;28;20262;-61
2021/05/13 05:07:15;;;;;;;11.32;9.95;;;11.60;99.90;;;;;;4972999;28;20504;-62
2021/05/13 05:09:41;;;;;;;12.73;9.98;;;11.80;99.90;;;;;;4972149;28;20019;-61
2021/05/13 05:12:11;;;;;;;13.50;10.80;;;12.00;99.90;;;;;;4955212;28;20154;-61
2021/05/13 05:14:37;;;;;;;13.30;10.70;;;12.10;99.90;;;;;;4972135;28;20026;-61
2021/05/13 05:17:03;;;;;;;13.82;11.18;;;12.20;99.90;;;;;;4972765;28;20023;-61
2021/05/13 05:19:30;;;;;;;14.52;10.18;;;12.20;99.90;;;;;;4954824;28;20027;-76
2021/05/13 05:21:56;;;;;;;10.85;9.75;;;12.30;99.90;;;;;;4972559;28;20121;-61
2021/05/13 05:24:21;;;;;;;14.15;10.32;;;12.40;99.90;;;;;;4972095;28;20181;-61
2021/05/13 05:26:47;;;;;;;12.30;9.85;;;12.50;99.90;;;;;;4971989;28;20060;-61
2021/05/13 05:29:13;;;;;;;10.25;9.25;;;12.60;99.90;;;;;;4972377;28;20499;-61
2021/05/13 05:31:38;;;;;;;12.93;9.35;;;12.80;99.90;;;;;;4954400;28;20429;-61
2021/05/13 05:34:04;;;;;;;11.73;9.63;;;12.50;99.90;;;;;;4954388;28;20407;-61
2021/05/13 05:36:30;;;;;;;12.55;8.93;;;12.30;99.90;;;;;;4971669;28;20073;-76
2021/05/13 05:38:58;;;;;;;9.15;8.18;;;12.40;99.90;;;;;;4954201;28;20039;-60
2021/05/13 05:41:24;;;;;;;10.38;9.30;;;12.40;99.90;;;;;;4972309;28;20153;-61
2021/05/13 05:43:50;;;;;;;11.55;9.32;;;12.50;99.90;;;;;;4971232;28;20355;-60
2021/05/13 05:46:16;;;;;;;10.82;8.07;;;12.40;99.90;;;;;;4972563;28;20061;-61
2021/05/13 05:48:41;;;;;;;12.18;7.65;;;12.50;99.90;;;;;;4954259;28;20066;-61
2021/05/13 05:51:07;;;;;;;9.13;8.23;;;12.70;99.90;;;;;;4955079;28;20031;-62
2021/05/13 05:53:33;;;;;;;8.90;8.00;;;12.60;99.90;;;;;;4971700;28;20081;-64
2021/05/13 05:55:58;;;;;;;17.27;8.75;;;12.70;99.90;;;;;;4972142;28;20023;-61
2021/05/13 05:58:24;;;;;;;15.52;9.32;;;12.80;99.90;;;;;;4954267;28;20035;-61
2021/05/13 06:00:50;;;;;;;13.90;8.25;;;12.70;99.90;;;;;;4971037;28;20027;-61
2021/05/13 06:03:15;;;;;;;11.35;8.00;;;12.40;99.90;;;;;;4971475;28;20037;-61
2021/05/13 06:05:41;;;;;;;13.85;9.52;;;12.40;99.90;;;;;;4953528;28;20027;-61
2021/05/13 06:08:06;;;;;;;17.00;9.73;;;12.60;99.90;;;;;;4971662;28;20070;-63
2021/05/13 06:10:32;;;;;;;18.77;10.70;;;12.50;99.90;;;;;;4953079;28;20504;-70
2021/05/13 06:12:58;;;;;;;16.45;11.30;;;12.40;99.90;;;;;;4971486;28;20126;-61
2021/05/13 06:15:25;;;;;;;12.43;10.93;;;12.80;99.90;;;;;;4971982;28;20035;-61
2021/05/13 06:17:51;;;;;;;13.25;11.75;;;12.80;99.90;;;;;;4971059;28;20055;-62
2021/05/13 06:20:28;;;;;;;12.90;11.57;;;13.00;99.90;;;;;;4954353;28;20031;-62
2021/05/13 06:22:54;;;;;;;17.73;12.57;;;13.30;99.90;;;;;;4971056;28;20023;-61
2021/05/13 06:25:21;;;;;;;15.70;11.73;;;13.50;99.90;;;;;;4933054;29;20055;-61
2021/05/13 06:27:47;;;;;;;16.77;12.57;;;13.60;99.90;;;;;;4932269;29;20059;-61
2021/05/13 06:30:14;;;;;;;13.02;11.35;;;13.60;99.90;;;;;;4931552;29;20573;-61
2021/05/13 06:32:41;;;;;;;15.15;11.50;;;13.80;99.90;;;;;;4931688;29;20040;-62
2021/05/13 06:35:07;;;;;;;17.52;10.93;;;13.80;99.90;;;;;;4932764;29;20115;-62
2021/05/13 06:37:33;;;;;;;16.65;10.90;;;13.90;99.90;;;;;;4915366;29;20047;-61
2021/05/13 06:39:59;;;;;;;12.38;10.15;;;14.10;99.90;;;;;;4931140;29;20441;-61
2021/05/13 06:42:25;;;;;;;12.38;10.23;;;14.30;99.90;;;;;;4932544;29;20076;-61
2021/05/13 06:44:51;;;;;;;15.40;12.02;;;14.30;99.90;;;;;;4930444;29;20027;-62
2021/05/13 06:47:17;;;;;;;16.27;11.30;;;14.40;99.90;;;;;;4938221;29;20465;-61
2021/05/13 06:49:43;;;;;;;12.98;11.05;;;14.40;99.90;;;;;;4936571;29;20028;-61
2021/05/13 06:52:09;;;;;;;18.52;12.13;;;14.50;99.90;;;;;;4937512;29;20339;-61
2021/05/13 06:54:34;;;;;;;12.85;11.25;;;14.50;99.90;;;;;;4936779;29;20038;-74
2021/05/13 06:57:00;;;;;;;12.85;11.05;;;14.60;99.90;;;;;;4936826;29;20032;-62
2021/05/13 06:59:27;;;;;;;10.73;9.63;;;14.70;99.90;;;;;;4938930;29;20123;-63
2021/05/13 07:01:56;;;;;;;11.40;10.20;;;14.70;99.90;;;;;;4937759;29;20154;-61
2021/05/13 07:04:23;;;;;;;12.52;10.32;;;14.60;99.90;;;;;;4936983;29;20154;-61
2021/05/13 07:06:48;;;;;;;11.45;10.10;;;14.60;99.90;;;;;;4938247;29;20054;-62
2021/05/13 07:09:14;;;;;;;11.32;10.23;;;14.60;99.90;;;;;;4938629;29;20032;-61
2021/05/13 07:11:40;;;;;;;13.57;9.80;;;14.40;99.90;;;;;;4936645;29;20027;-62
2021/05/13 07:14:06;;;;;;;13.07;9.82;;;14.30;99.90;;;;;;4937236;29;20032;-62
2021/05/13 07:16:33;;;;;;;10.68;9.57;;;14.30;99.90;;;;;;4938691;29;20028;-61
2021/05/13 07:18:59;;;;;;;10.85;9.60;;;14.50;99.90;;;;;;4937716;29;20036;-61
2021/05/13 07:21:25;;;;;;;14.90;9.98;;;14.70;99.90;;;;;;4938600;29;20082;-61
2021/05/13 07:23:50;;;;;;;13.95;10.23;;;15.00;99.90;;;;;;4952567;28;20051;-62
2021/05/13 07:26:16;;;;;;;10.88;9.48;;;15.10;99.90;;;;;;4959572;28;20440;-61
2021/05/13 07:28:44;;;;;;;12.35;10.43;;;15.30;99.90;;;;;;4976369;28;20034;-62
2021/05/13 07:31:09;;;;;;;12.60;10.40;;;15.60;99.90;;;;;;4958989;28;20046;-61
2021/05/13 07:33:36;;;;;;;12.23;10.57;;;15.90;99.90;;;;;;4958769;28;20038;-61
2021/05/13 07:36:03;;;;;;;16.95;10.50;;;15.90;99.90;;;;;;4959305;28;20034;-62
2021/05/13 07:38:29;;;;;;;14.77;10.10;;;15.80;99.90;;;;;;4976227;28;20101;-61
2021/05/13 07:40:55;;;;;;;10.70;9.55;;;16.00;99.90;;;;;;4958254;28;20034;-62
2021/05/13 07:43:21;;;;;;;12.40;10.68;;;16.00;99.90;;;;;;4958709;28;20035;-62
2021/05/13 07:45:49;;;;;;;11.80;10.07;;;16.00;99.90;;;;;;4955051;28;20059;-60
2021/05/13 07:48:15;;;;;;;18.95;11.43;;;16.20;99.90;;;;;;4967005;28;20069;-62
2021/05/13 07:50:41;;;;;;;15.32;10.75;;;16.20;99.90;;;;;;4958404;28;20121;-61
2021/05/13 07:53:07;;;;;;;14.88;10.57;;;15.70;99.90;;;;;;4976552;28;20142;-58
2021/05/13 07:55:34;;;;;;;11.10;7.63;;;16.40;99.90;;;;;;4958826;28;20026;-59
2021/05/13 07:58:00;;;;;;;10.05;6.53;;;16.90;99.90;;;;;;4973848;28;20046;-60
2021/05/13 08:00:26;;;;;;;10.95;7.70;;;17.20;99.90;;;;;;4973646;28;20031;-60
2021/05/13 08:02:52;;;;;;;13.13;9.68;;;17.30;99.90;;;;;;4972873;28;20031;-60
2021/05/13 08:05:18;;;;;;;12.07;7.60;;;17.80;99.90;;;;;;4973353;28;20105;-60
2021/05/13 08:07:44;;;;;;;9.13;6.95;;;17.60;99.90;;;;;;4954978;28;20468;-60
2021/05/13 08:10:10;;;;;;;12.35;10.02;;;18.00;99.90;;;;;;4955743;28;20031;-60
2021/05/13 08:12:36;;;;;;;11.05;9.80;;;18.10;99.90;;;;;;4973496;28;20031;-60
2021/05/13 08:15:04;;;;;;;8.93;6.40;;;18.00;99.90;;;;;;4972370;28;20340;-60
2021/05/13 08:17:30;;;;;;;9.25;7.78;;;18.20;99.90;;;;;;4955629;28;20066;-61
2021/05/13 08:19:56;;;;;;;9.45;7.00;;;18.50;99.90;;;;;;4972469;28;20030;-60
2021/05/13 08:22:21;;;;;;;13.23;6.97;;;19.00;99.90;;;;;;4955012;28;20034;-60
2021/05/13 08:24:47;;;;;;;8.27;7.25;;;19.00;99.90;;;;;;4954435;28;20078;-60
2021/05/13 08:27:13;;;;;;;9.93;8.70;;;19.20;99.90;;;;;;4955170;28;20023;-60
2021/05/13 08:29:38;;;;;;;10.68;7.60;;;18.70;99.90;;;;;;4955523;28;20033;-63
2021/05/13 08:32:06;;;;;;;8.88;5.95;;;18.60;99.90;;;;;;4955072;28;20073;-60
2021/05/13 08:34:32;;;;;;;12.68;6.90;;;19.10;99.90;;;;;;4972671;28;20039;-60
2021/05/13 08:36:57;;;;;;;11.40;8.80;;;18.90;99.90;;;;;;4972108;28;20034;-60
2021/05/13 08:39:23;;;;;;;11.75;8.60;;;19.10;99.90;;;;;;4972711;28;20045;-61
2021/05/13 08:41:49;;;;;;;12.02;9.57;;;18.50;99.90;;;;;;4971970;28;20037;-60
2021/05/13 08:44:15;;;;;;;12.27;9.55;;;18.70;99.90;;;;;;4954571;28;20389;-60
2021/05/13 08:46:41;;;;;;;12.45;7.63;;;18.50;99.90;;;;;;4954930;28;20031;-60
2021/05/13 08:49:07;;;;;;;11.55;9.65;;;18.80;99.90;;;;;;4939277;28;20117;-60
2021/05/13 08:51:36;;;;;;;11.75;9.75;;;19.00;99.90;;;;;;4972807;28;20022;-61
2021/05/13 08:54:02;;;;;;;14.75;9.68;;;19.00;99.90;;;;;;4954368;28;20200;-62
2021/05/13 08:56:31;;;;;;;11.98;9.05;;;19.00;99.70;;;;;;4954323;28;20038;-65
2021/05/13 08:59:04;;;;;;;12.52;9.02;;;18.60;99.90;;;;;;4953829;28;20070;-63
2021/05/13 09:01:31;;;;;;;16.50;10.32;;;19.00;99.70;;;;;;4972437;28;20026;-62
2021/05/13 09:03:58;;;;;;;15.13;9.68;;;18.90;99.60;;;;;;4971420;28;20318;-60
2021/05/13 09:06:35;;;;;;;16.05;10.50;;;19.30;99.50;;;;;;4954507;28;20090;-61
2021/05/13 09:09:15;;;;;;;13.68;9.70;;;18.80;99.70;;;;;;4953117;28;20023;-61
2021/05/13 09:11:52;;;;;;;13.98;8.35;;;19.40;99.90;;;;;;4954421;28;20037;-60
2021/05/13 09:14:26;;;;;;;11.45;8.05;;;19.70;99.20;;;;;;4972288;28;20106;-62
2021/05/13 09:16:52;;;;;;;14.50;6.93;;;20.10;96.60;;;;;;4971867;28;20107;-63
2021/05/13 09:19:28;;;;;;;12.55;8.73;;;20.80;96.20;;;;;;4954721;28;20045;-64
2021/05/13 09:22:04;;;;;;;15.95;9.20;;;20.40;96.10;;;;;;4972129;28;20093;-65
2021/05/13 09:24:58;;;;;;;13.63;7.63;;;20.50;96.10;;;;;;4972493;28;20051;-64
2021/05/13 09:27:46;;;;;;;11.07;7.15;;;20.40;95.20;;;;;;4954392;28;20030;-65
2021/05/13 09:30:18;;;;;;;9.77;7.25;;;20.00;96.10;;;;;;4972040;28;20413;-63
2021/05/13 09:33:05;;;;;;;11.48;6.63;;;19.80;94.40;;;;;;4933862;29;20051;-79
2021/05/13 09:35:36;;;;;;;11.82;6.22;;;19.70;95.10;;;;;;4952572;29;20035;-64
2021/05/13 09:38:08;;;;;;;9.30;6.50;;;20.00;93.90;;;;;;4934363;29;20050;-67
2021/05/13 09:40:34;;;;;;;10.98;6.05;;;20.20;92.80;;;;;;4952825;29;20102;-65
2021/05/13 09:43:15;;;;;;;9.63;5.45;;;20.70;92.50;;;;;;4951616;29;20019;-69
2021/05/13 09:45:50;;;;;;;8.00;4.88;;;20.90;92.30;;;;;;4934629;29;20035;-64
2021/05/13 09:48:38;;;;;;;7.40;4.47;;;21.10;90.50;;;;;;4934746;29;20469;-64
2021/05/13 09:51:28;;;;;;;7.07;4.47;;;21.10;89.50;;;;;;4950944;29;20513;-63
2021/05/13 09:54:20;;;;;;;7.28;3.88;;;21.50;87.00;;;;;;4933251;29;20550;-64
2021/05/13 09:56:49;;;;;;;8.00;4.15;;;21.70;84.70;;;;;;4930860;29;20046;-63
2021/05/13 09:59:23;;;;;;;6.30;2.72;;;21.90;95.30;;;;;;4950560;29;20441;-62
2021/05/13 10:01:50;;;;;;;3.60;2.10;;;22.50;79.50;;;;;;4945030;28;20209;-61
2021/05/13 10:04:16;;;;;;;4.97;1.60;;;21.90;82.30;;;;;;4952519;28;20041;-61
2021/05/13 10:06:42;;;;;;;6.45;2.50;;;21.40;83.10;;;;;;4952308;28;20461;-61
2021/05/13 10:09:08;;;;;;;6.20;1.90;;;21.40;79.60;;;;;;4951660;28;20031;-62
2021/05/13 10:11:34;;;;;;;8.07;2.97;;;21.10;79.30;;;;;;4952114;28;20069;-62
2021/05/13 10:13:59;;;;;;;6.90;2.15;;;21.30;76.50;;;;;;4969590;28;20057;-64
2021/05/13 10:16:28;;;;;;;6.95;2.53;;;21.10;79.60;;;;;;4968656;28;20067;-60
2021/05/13 10:19:01;;;;;;;4.88;1.20;;;21.30;78.00;;;;;;4971011;28;20034;-60
2021/05/13 10:21:30;;;;;;;3.78;1.30;;;21.60;79.80;;;;;;4969598;28;20114;-61
2021/05/13 10:23:57;;;;;;;3.50;1.20;;;21.90;75.80;;;;;;4967274;28;20055;-65
2021/05/13 10:26:41;;;;;;;4.70;1.30;;;22.40;77.40;;;;;;4969622;28;20081;-62
2021/05/13 10:29:22;;;;;;;7.70;1.67;;;23.10;63.50;;;;;;4952367;28;20045;-63
2021/05/13 10:32:19;;;;;;;3.50;1.42;;;23.50;66.40;;;;;;4952398;28;20030;-67
2021/05/13 10:34:47;;;;;;;3.58;1.13;;;23.10;58.10;;;;;;4970321;28;20448;-49
2021/05/13 10:37:25;;;;;;;4.38;1.33;;;22.50;58.70;;;;;;4970418;28;20037;-48
2021/05/13 10:40:22;;;;;;;5.40;1.65;;;21.70;62.60;;;;;;4969969;28;20081;-51
2021/05/13 10:43:02;;;;;;;4.20;1.15;;;22.40;63.50;;;;;;4970023;28;20042;-63
2021/05/13 10:45:34;;;;;;;1.80;1.17;;;22.50;63.80;;;;;;4969507;28;20026;-51
2021/05/13 10:48:28;;;;;;;3.05;0.90;;;23.10;59.80;;;;;;4969794;28;20161;-51
2021/05/13 10:51:04;;;;;;;3.00;1.23;;;22.80;58.30;;;;;;4970105;28;20276;-51
2021/05/13 10:56:43;;;;;;;4.38;1.30;;;22.60;61.30;;;;;;4969702;28;20089;-50
2021/05/13 10:59:09;;;;;;;7.47;1.15;;;22.60;63.30;;;;;;4966804;28;20062;-51
2021/05/13 11:01:44;;;;;;;3.83;1.25;;;22.90;62.80;;;;;;4952014;28;20027;-52
2021/05/13 11:04:22;;;;;;;5.90;1.40;;;23.20;63.00;;;;;;4968913;28;20109;-51
2021/05/13 11:06:55;;;;;;;6.28;1.40;;;23.40;62.60;;;;;;4951020;28;20035;-50
2021/05/13 11:12:24;;;;;;;5.57;1.55;;;23.60;61.50;;;;;;4968277;28;20066;-50
2021/05/13 11:14:58;;;;;;;14.63;1.73;;;23.90;60.20;;;;;;4949653;28;20396;-52
2021/05/13 11:20:21;;;;;;;4.75;1.65;;;24.60;59.60;;;;;;4969141;28;20031;-51
2021/05/13 11:23:15;;;;;;;4.07;1.52;;;24.30;60.40;;;;;;4952048;28;20444;-53
2021/05/13 11:25:45;;;;;;;4.00;1.10;;;23.90;59.90;;;;;;4930644;29;20478;-51
2021/05/13 11:28:41;;;;;;;3.03;1.42;;;23.70;62.20;;;;;;4929384;29;20043;-50
2021/05/13 11:31:07;;;;;;;8.60;1.30;;;23.90;59.50;;;;;;4928003;29;20035;-51
2021/05/13 11:33:50;;;;;;;6.88;1.23;;;24.30;59.70;;;;;;4916143;29;20028;-50
2021/05/13 11:36:18;;;;;;;4.60;1.25;;;24.70;57.20;;;;;;4932218;29;20114;-51
2021/05/13 11:38:49;;;;;;;3.75;0.90;;;24.50;56.80;;;;;;4931835;29;20147;-50
2021/05/13 11:41:17;;;;;;;4.05;1.25;;;24.40;55.40;;;;;;4932218;29;20031;-50
2021/05/13 11:43:43;;;;;;;2.20;1.08;;;24.60;59.20;;;;;;4931953;29;20042;-59
2021/05/13 11:46:10;;;;;;;4.45;1.10;;;24.40;59.50;;;;;;4931006;29;20024;-50
2021/05/13 11:48:40;;;;;;;2.00;0.77;;;24.10;60.50;;;;;;4932215;29;20127;-50
2021/05/13 11:51:10;;;;;;;4.60;1.25;;;23.90;60.30;;;;;;4931705;29;20039;-50
2021/05/13 11:53:38;;;;;;;3.90;1.27;;;23.70;60.70;;;;;;4932208;29;20055;-50
2021/05/13 11:56:05;;;;;;;4.30;1.80;;;23.30;61.30;;;;;;4915572;29;20067;-50
2021/05/13 11:58:41;;;;;;;3.38;1.98;;;23.10;61.70;;;;;;4916421;29;20500;-51
2021/05/13 12:01:28;;;;;;;1.70;1.00;;;22.90;60.00;;;;;;4930961;29;20024;-59
2021/05/13 12:03:58;;;;;;;3.40;1.35;;;23.30;63.00;;;;;;4952744;28;20101;-50
2021/05/13 12:06:25;;;;;;;4.32;1.60;;;23.70;61.60;;;;;;4972636;28;20476;-50
2021/05/13 12:08:50;;;;;;;5.00;1.17;;;23.90;61.20;;;;;;4972391;28;20086;-49
2021/05/13 12:11:28;;;;;;;3.13;0.98;;;24.50;60.70;;;;;;4972671;28;20113;-51
2021/05/13 12:13:58;;;;;;;4.90;1.30;;;24.90;60.10;;;;;;4953711;28;20039;-49
2021/05/13 12:16:28;;;;;;;5.18;1.02;;;25.20;58.50;;;;;;4972341;28;20074;-50
2021/05/13 12:19:01;;;;;;;4.43;1.38;;;25.50;57.90;;;;;;4954675;28;20039;-52
2021/05/13 12:21:27;;;;;;;4.47;0.80;;;25.50;57.90;;;;;;4972559;28;20034;-52
2021/05/13 12:23:53;;;;;;;1.40;0.80;;;25.50;56.30;;;;;;4971556;28;20138;-63
2021/05/13 12:26:30;;;;;;;5.90;1.02;;;25.50;56.30;;;;;;4954749;28;20031;-51
2021/05/13 12:28:55;;;;;;;3.35;1.23;;;25.10;58.80;;;;;;4951568;28;20031;-51
2021/05/13 12:31:33;;;;;;;4.22;0.95;;;24.60;57.20;;;;;;4952424;28;20031;-51
2021/05/13 12:34:05;;;;;;;6.43;1.52;;;24.30;57.40;;;;;;4951774;28;20023;-52
2021/05/13 12:36:33;;;;;;;3.65;1.10;;;23.80;58.60;;;;;;4945247;28;20097;-53
2021/05/13 12:38:59;;;;;;;2.30;1.15;;;23.90;58.20;;;;;;4948287;28;20043;-54
2021/05/13 12:41:27;;;;;;;2.92;1.33;;;24.20;58.10;;;;;;4942474;28;20033;-50
2021/05/13 12:44:17;;;;;;;3.38;1.05;;;24.60;57.20;;;;;;4966028;28;20023;-52
2021/05/13 12:46:48;;;;;;;4.22;1.42;;;24.90;56.50;;;;;;4942727;28;20023;-51
2021/05/13 12:49:23;;;;;;;4.80;1.35;;;25.00;57.50;;;;;;4965147;28;20039;-51
2021/05/13 12:52:02;;;;;;;3.08;1.38;;;25.30;55.80;;;;;;4952830;28;20328;-50
2021/05/13 12:54:29;;;;;;;6.22;1.35;;;25.30;55.80;;;;;;4954300;28;20133;-51
2021/05/13 12:57:15;;;;;;;3.17;1.52;;;25.20;56.00;;;;;;4972655;28;20035;-57
2021/05/13 12:59:42;;;;;;;5.28;1.10;;;25.30;56.10;;;;;;4972439;28;20031;-50
2021/05/13 13:02:08;;;;;;;5.18;1.05;;;25.50;55.70;;;;;;4981868;28;20049;-50